KAKO/AKO METAR and TAF weather

Enter ICAO airport designator
Station Type Date Time Source
KAKO METAR 2019/05/21 20:53 UTC NOAA

KAKO 212053Z AUTO 31014KT 1/4SM +SN FG VV007 00/00 A2949 RMK AO2 SLP998 P0006 60021 T00000000 56007 TSNO


Station Type Date Time Source
KAKO Decoded METAR 2019/05/21 20:53 UTC NOAA

COLORADO PLAINS REGIONAL, CO, United States (KAKO) 40-10N 103-13W 1421M
May 21, 2019 - 04:53 PM EDT / 2019.05.21 2053 UTC
Wind: from the NW (310 degrees) at 16 MPH (14 KT):0
Visibility: 1/4 mile(s):0
Sky conditions: obscured
Weather: heavy snow; fog
Precipitation last hour: 0.06 inches
Temperature: 32.0 F (0.0 C)
Windchill: 21 F (-6 C):1
Dew Point: 32.0 F (0.0 C)
Relative Humidity: 100%
Pressure (altimeter): 29.49 in. Hg (998 hPa)
Pressure tendency: 0.02 inches (0.7 hPa) lower than three hours ago
ob: KAKO 212053Z AUTO 31014KT 1/4SM +SN FG VV007 00/00 A2949 RMK AO2 SLP998 P0006 60021 T00000000 56007 TSNO
cycle: 21

Station Type Date Time Source
KAKO TAF UTC NOAA

Error!

Example: see airport list